Time;durP1;ratioP1;P1;durP2;ratioP2;P2;SDS_P1;SDS_P2;PMS_P1;PMS_P2;Temp;Humidity;BMP_temperature;BMP_pressure;BME280_temperature;BME280_humidity;BME280_pressure;Samples;Min_cycle;Max_cycle;Signal;HPM_P1;HPM_P2
2023/05/02 00:02:52;;;;;;;;;;;;;;;;;;;;;
2023/05/02 00:06:45;;;;;;;12.20;7.70;;;;;;;11.55;63.41;99969.71;134375;1303;22455;-76
2023/05/02 00:10:02;;;;;;;;;;;;;;;;;;;;;
2023/05/02 00:17:17;;;;;;;11.40;7.30;;;;;;;11.45;63.95;99960.54;134326;1303;22387;-76
2023/05/02 00:21:06;;;;;;;9.00;7.50;;;;;;;11.42;63.82;99960.19;134391;1303;22583;-76
2023/05/02 00:24:30;;;;;;;11.40;7.50;;;;;;;11.39;63.82;99960.19;134427;1296;23218;-76
2023/05/02 00:27:36;;;;;;;14.70;7.90;;;;;;;11.36;64.13;99959.31;134393;1303;22359;-76
2023/05/02 00:30:45;;;;;;;9.90;7.70;;;;;;;11.31;64.18;99958.50;134401;1303;22334;-76
2023/05/02 00:34:29;;;;;;;12.20;7.80;;;;;;;11.25;64.45;99956.61;134405;1297;22537;-76
2023/05/02 00:37:48;;;;;;;12.40;8.00;;;;;;;11.22;64.54;99953.24;134450;1300;22435;-76
2023/05/02 00:41:15;;;;;;;10.60;8.20;;;;;;;11.19;64.75;99950.16;134408;1300;23815;-76
2023/05/02 00:44:16;;;;;;;10.70;7.50;;;;;;;11.18;64.80;99947.85;134327;1298;22340;-76
2023/05/02 00:47:23;;;;;;;10.90;8.40;;;;;;;11.16;65.00;99948.42;134409;1303;22360;-76
2023/05/02 00:50:36;;;;;;;11.50;7.80;;;;;;;11.15;64.81;99946.98;134312;1297;22418;-76
2023/05/02 00:53:39;;;;;;;11.00;7.40;;;;;;;11.12;65.01;99943.94;134404;1296;23192;-76
2023/05/02 00:56:51;;;;;;;;;;;;;;;;;;;;;
2023/05/02 01:00:19;;;;;;;12.50;8.50;;;;;;;11.10;65.07;99944.74;134308;1296;22383;-76
2023/05/02 01:03:39;;;;;;;11.40;8.40;;;;;;;11.10;64.99;99946.11;134433;1300;22379;-77
2023/05/02 01:07:12;;;;;;;12.90;7.80;;;;;;;11.08;64.94;99945.33;134442;1289;23078;-76
2023/05/02 01:11:47;;;;;;;;;;;;;;;;;;;;;
2023/05/02 01:15:54;;;;;;;;;;;;;;;;;;;;;
2023/05/02 01:19:30;;;;;;;10.00;7.40;;;;;;;10.93;65.17;99940.66;134188;1296;22448;-76
2023/05/02 01:22:32;;;;;;;10.40;8.00;;;;;;;10.89;65.26;99945.35;134439;1298;23071;-76
2023/05/02 01:26:23;;;;;;;9.90;7.10;;;;;;;10.82;65.29;99948.26;134339;1296;22544;-76
2023/05/02 01:29:29;;;;;;;9.90;7.40;;;;;;;10.75;65.41;99949.89;133368;1304;22391;-76
2023/05/02 01:32:32;;;;;;;10.50;7.50;;;;;;;10.70;65.55;99953.45;133383;1303;22264;-76
2023/05/02 01:35:48;;;;;;;;;;;;;;;;;;;;;
2023/05/02 01:39:01;;;;;;;;;;;;;;;;;;;;;
2023/05/02 01:42:28;;;;;;;10.30;7.90;;;;;;;10.53;65.93;99958.14;134403;1298;23029;-76
2023/05/02 01:45:40;;;;;;;12.60;8.70;;;;;;;10.47;66.06;99957.77;134438;1298;22424;-76
2023/05/02 01:48:44;;;;;;;11.00;8.10;;;;;;;10.41;66.16;99955.13;134314;1298;22326;-76
2023/05/02 01:52:10;;;;;;;10.00;7.80;;;;;;;10.35;66.28;99949.74;134414;1296;22432;-76
2023/05/02 01:56:11;;;;;;;12.50;8.50;;;;;;;10.27;66.57;99945.80;134335;1298;22895;-76
2023/05/02 01:59:26;;;;;;;;;;;;;;;;;;;;;
2023/05/02 02:07:00;;;;;;;;;;;;;;;;;;;;;
2023/05/02 02:11:12;;;;;;;;;;;;;;;;;;;;;
2023/05/02 02:14:30;;;;;;;11.80;7.70;;;;;;;10.14;67.37;99948.73;134175;1298;22380;-77
2023/05/02 02:17:45;;;;;;;10.70;8.10;;;;;;;10.15;67.51;99952.98;134418;1296;22238;-76
2023/05/02 02:21:29;;;;;;;;;;;;;;;;;;;;;
2023/05/02 02:24:37;;;;;;;12.80;8.20;;;;;;;10.14;67.58;99950.05;134420;1303;25206;-76
2023/05/02 02:28:04;;;;;;;9.50;7.40;;;;;;;10.12;67.75;99953.30;134428;1303;22176;-76
2023/05/02 02:31:13;;;;;;;9.30;7.70;;;;;;;10.10;67.87;99954.22;134204;1301;22366;-76
2023/05/02 02:34:14;;;;;;;9.10;7.10;;;;;;;10.09;68.12;99959.83;134440;1297;22375;-76
2023/05/02 02:38:30;;;;;;;10.90;8.00;;;;;;;10.09;68.08;99966.33;134411;1297;23223;-76
2023/05/02 02:41:38;;;;;;;10.60;7.60;;;;;;;10.11;68.23;99969.54;134169;1301;22391;-76
2023/05/02 02:45:40;;;;;;;;;;;;;;;;;;;;;
2023/05/02 02:49:40;;;;;;;;;;;;;;;;;;;;;
2023/05/02 02:53:08;;;;;;;10.50;7.50;;;;;;;10.12;68.63;99983.55;134403;1296;22218;-76
2023/05/02 02:57:17;;;;;;;;;;;;;;;;;;;;;
2023/05/02 03:00:41;;;;;;;13.40;7.80;;;;;;;10.07;69.10;99984.55;134110;1301;22477;-76
2023/05/02 03:04:04;;;;;;;9.90;8.10;;;;;;;10.11;69.11;99989.17;134429;1293;22373;-76
2023/05/02 03:07:44;;;;;;;13.50;8.40;;;;;;;10.15;69.31;99993.06;134291;1298;22429;-76
2023/05/02 03:10:57;;;;;;;8.90;7.00;;;;;;;10.19;69.39;99997.73;134412;1298;22459;-76
2023/05/02 03:18:40;;;;;;;;;;;;;;;;;;;;;
2023/05/02 03:26:41;;;;;;;10.50;7.30;;;;;;;10.27;69.67;100007.90;134204;1296;22235;-76
2023/05/02 03:30:39;;;;;;;;;;;;;;;;;;;;;
2023/05/02 03:34:57;;;;;;;;;;;;;;;;;;;;;
2023/05/02 03:38:21;;;;;;;11.70;7.10;;;;;;;10.35;70.18;100020.48;134234;1298;22341;-76
2023/05/02 03:41:23;;;;;;;8.60;7.00;;;;;;;10.39;70.10;100027.33;134295;1298;22267;-77
2023/05/02 03:45:36;;;;;;;9.80;7.00;;;;;;;10.44;70.30;100031.70;134415;1293;22428;-76
2023/05/02 03:52:43;;;;;;;12.60;7.00;;;;;;;10.56;70.52;100037.80;134293;1289;23151;-76
2023/05/02 03:59:44;;;;;;;9.60;7.20;;;;;;;10.65;70.47;100038.41;134288;1301;22407;-76
2023/05/02 04:03:50;;;;;;;12.90;7.50;;;;;;;10.67;70.44;100045.09;134404;1296;22386;-76
2023/05/02 04:07:25;;;;;;;;;;;;;;;;;;;;;
2023/05/02 04:11:06;;;;;;;9.70;7.50;;;;;;;10.70;70.73;100053.40;134405;1295;22410;-76
2023/05/02 04:14:54;;;;;;;12.50;8.70;;;;;;;10.73;70.59;100054.69;134424;1298;23025;-76
2023/05/02 04:18:22;;;;;;;10.10;6.70;;;;;;;10.77;70.57;100066.06;134313;1298;22401;-76
2023/05/02 04:21:36;;;;;;;10.20;7.40;;;;;;;10.82;70.56;100076.48;134408;1300;22454;-76
2023/05/02 04:28:42;;;;;;;10.30;7.10;;;;;;;10.94;70.57;100079.05;134405;1297;22389;-77
2023/05/02 04:31:51;;;;;;;8.80;7.00;;;;;;;10.99;70.38;100085.28;134315;1301;22300;-77
2023/05/02 04:35:26;;;;;;;8.40;6.60;;;;;;;11.04;70.39;100094.38;134316;1297;22376;-76
2023/05/02 04:38:28;;;;;;;8.20;6.60;;;;;;;11.09;70.46;100100.91;134303;1303;22414;-77
2023/05/02 04:41:40;;;;;;;10.60;6.50;;;;;;;11.15;70.27;100104.71;134439;1297;22240;-77
2023/05/02 04:44:44;;;;;;;8.30;6.70;;;;;;;11.20;70.20;100103.56;134292;1301;22238;-76
2023/05/02 04:48:42;;;;;;;9.00;6.00;;;;;;;11.26;70.35;100105.60;134281;1296;22315;-76
2023/05/02 04:52:07;;;;;;;9.00;6.40;;;;;;;11.33;70.27;100112.86;134383;1297;22397;-77
2023/05/02 04:55:22;;;;;;;;;;;;;;;;;;;;;
2023/05/02 04:59:24;;;;;;;11.90;5.50;;;;;;;11.41;70.15;100120.43;134358;1298;22382;-77
2023/05/02 05:03:50;;;;;;;10.50;5.60;;;;;;;11.45;70.07;100132.05;134384;1296;23092;-77
2023/05/02 05:07:40;;;;;;;7.90;5.30;;;;;;;11.47;70.11;100133.44;134071;1297;22423;-76
2023/05/02 05:11:13;;;;;;;7.60;5.40;;;;;;;11.47;70.17;100139.27;134161;1297;22474;-77
2023/05/02 05:14:47;;;;;;;9.90;5.40;;;;;;;11.45;70.30;100141.73;134413;1298;22385;-75
2023/05/02 05:18:25;;;;;;;;;;;;;;;;;;;;;
2023/05/02 05:21:49;;;;;;;12.80;6.80;;;;;;;11.33;70.97;100151.45;134373;1296;22199;-76
2023/05/02 05:24:55;;;;;;;10.60;6.70;;;;;;;11.29;71.33;100158.66;134420;1298;22413;-73
2023/05/02 05:28:19;;;;;;;9.00;6.00;;;;;;;11.24;71.82;100158.44;134293;1298;22349;-74
2023/05/02 05:31:45;;;;;;;9.50;6.30;;;;;;;11.18;72.25;100162.96;134389;1298;22999;-75
2023/05/02 05:35:23;;;;;;;;;;;;;;;;;;;;;
2023/05/02 05:38:55;;;;;;;;;;;;;;;;;;;;;
2023/05/02 05:42:25;;;;;;;10.70;6.30;;;;;;;10.98;73.39;100178.50;134407;1298;23125;-74
2023/05/02 05:45:46;;;;;;;10.70;6.30;;;;;;;10.94;73.72;100178.70;134421;1298;22538;-74
2023/05/02 05:49:42;;;;;;;10.70;6.70;;;;;;;10.92;74.25;100188.36;134241;1298;22361;-74
2023/05/02 05:53:26;;;;;;;11.20;6.30;;;;;;;10.86;74.67;100193.21;134405;1300;23073;-74
2023/05/02 05:56:28;;;;;;;10.50;6.40;;;;;;;10.86;75.00;100188.66;134320;1296;22472;-73
2023/05/02 05:59:52;;;;;;;10.00;6.50;;;;;;;10.89;75.23;100197.66;133742;1301;23148;-73
2023/05/02 06:03:49;;;;;;;17.00;6.60;;;;;;;10.92;75.51;100204.92;133810;1300;22401;-74
2023/05/02 06:07:26;;;;;;;11.40;6.50;;;;;;;10.97;75.89;100213.64;133918;1301;22467;-73
2023/05/02 06:11:26;;;;;;;;;;;;;;;;;;;;;
2023/05/02 06:14:43;;;;;;;9.40;6.50;;;;;;;11.03;76.37;100220.11;133747;1304;22397;-77
2023/05/02 06:17:53;;;;;;;8.20;6.90;;;;;;;11.05;76.54;100225.82;133808;1300;22553;-77
2023/05/02 06:21:36;;;;;;;8.40;7.20;;;;;;;11.11;76.89;100228.02;133836;1299;22380;-78
2023/05/02 06:25:57;;;;;;;;;;;;;;;;;;;;;
2023/05/02 06:29:59;;;;;;;;;;;;;;;;;;;;;
2023/05/02 06:33:14;;;;;;;;;;;;;;;;;;;;;
2023/05/02 06:40:34;;;;;;;10.10;8.30;;;;;;;11.72;77.76;100238.67;134341;1298;23178;-79
2023/05/02 06:43:57;;;;;;;13.20;8.40;;;;;;;11.82;78.01;100250.11;134176;1297;22274;-79
2023/05/02 06:47:12;;;;;;;13.20;10.00;;;;;;;11.93;78.15;100249.97;134155;1297;22291;-81
2023/05/02 06:50:33;;;;;;;16.10;10.10;;;;;;;12.02;78.07;100255.52;134205;1305;22347;-78
2023/05/02 07:02:51;;;;;;;;;;;;;;;;;;;;;
2023/05/02 07:07:38;;;;;;;12.40;7.90;;;;;;;12.14;77.61;100276.42;133877;1297;22277;-78
2023/05/02 07:15:19;;;;;;;;;;;;;;;;;;;;;
2023/05/02 07:19:05;;;;;;;11.80;8.90;;;;;;;12.30;77.76;100290.20;134063;1298;22430;-76
2023/05/02 07:23:00;;;;;;;;;;;;;;;;;;;;;
2023/05/02 07:26:52;;;;;;;;;;;;;;;;;;;;;
2023/05/02 07:31:07;;;;;;;;;;;;;;;;;;;;;
2023/05/02 07:39:15;;;;;;;8.70;7.00;;;;;;;12.76;77.33;100312.38;134194;1294;24198;-77
2023/05/02 07:42:44;;;;;;;9.90;6.80;;;;;;;12.87;77.00;100319.98;134125;1297;22436;-77
2023/05/02 07:50:34;;;;;;;;;;;;;;;;;;;;;
2023/05/02 07:54:11;;;;;;;;;;;;;;;;;;;;;
2023/05/02 07:57:37;;;;;;;8.90;7.00;;;;;;;13.33;76.56;100329.46;134167;1298;22343;-84
2023/05/02 08:01:33;;;;;;;;;;;;;;;;;;;;;
2023/05/02 08:05:01;;;;;;;9.00;6.90;;;;;;;13.54;76.11;100335.84;134146;1297;22362;-80
2023/05/02 08:13:26;;;;;;;;;;;;;;;;;;;;;
2023/05/02 08:16:29;;;;;;;9.70;6.00;;;;;;;13.96;75.39;100343.13;134172;1301;22359;-85
2023/05/02 08:19:59;;;;;;;7.60;5.90;;;;;;;14.10;75.23;100341.64;134217;1298;22399;-80
2023/05/02 08:23:13;;;;;;;9.90;6.40;;;;;;;14.26;74.97;100346.89;133920;1304;23382;-85
2023/05/02 08:26:14;;;;;;;8.20;6.20;;;;;;;14.40;74.81;100349.63;134237;1298;22370;-82
2023/05/02 08:33:54;;;;;;;6.40;5.70;;;;;;;14.75;74.19;100346.10;134005;1305;23244;-80
2023/05/02 08:41:09;;;;;;;;;;;;;;;;;;;;;
2023/05/02 08:45:23;;;;;;;7.70;5.90;;;;;;;14.97;73.11;100352.79;134196;1305;22427;-85
2023/05/02 08:49:19;;;;;;;7.50;5.60;;;;;;;15.08;72.88;100357.71;134135;1298;22353;-86
2023/05/02 08:52:46;;;;;;;7.20;5.90;;;;;;;15.14;72.67;100355.13;134028;1301;22422;-86
2023/05/02 08:55:48;;;;;;;7.70;5.70;;;;;;;15.23;72.47;100358.66;134231;1305;23216;-85
2023/05/02 08:58:54;;;;;;;9.40;6.50;;;;;;;15.33;72.24;100363.09;134244;1298;22156;-85
2023/05/02 09:02:38;;;;;;;10.60;5.90;;;;;;;15.36;71.93;100371.05;133623;1304;22403;-85
2023/05/02 09:05:41;;;;;;;11.10;7.00;;;;;;;15.33;71.60;100374.20;133471;1304;22363;-83
2023/05/02 09:09:46;;;;;;;12.30;6.30;;;;;;;15.33;71.39;100375.27;133578;1304;23275;-86
2023/05/02 09:17:21;;;;;;;;;;;;;;;;;;;;;
2023/05/02 09:20:54;;;;;;;7.50;6.20;;;;;;;15.47;70.67;100390.57;133487;1301;22468;-85
2023/05/02 09:24:09;;;;;;;;;;;;;;;;;;;;;
2023/05/02 09:27:55;;;;;;;9.60;6.30;;;;;;;15.58;70.50;100394.20;133661;1302;22420;-86
2023/05/02 09:31:08;;;;;;;7.90;6.60;;;;;;;15.75;70.54;100397.65;133616;1303;22388;-86
2023/05/02 09:35:00;;;;;;;;;;;;;;;;;;;;;
2023/05/02 09:42:35;;;;;;;11.20;7.70;;;;;;;16.51;70.01;100402.39;134025;1301;22576;-84
2023/05/02 09:46:29;;;;;;;;;;;;;;;;;;;;;
2023/05/02 09:49:53;;;;;;;;;;;;;;;;;;;;;
2023/05/02 09:53:08;;;;;;;11.10;7.00;;;;;;;16.94;68.97;100409.81;134128;1294;22330;-80
2023/05/02 10:01:07;;;;;;;15.90;10.10;;;;;;;17.17;68.44;100419.38;134125;1298;22417;-79
2023/05/02 10:12:59;;;;;;;;;;;;;;;;;;;;;
2023/05/02 10:17:00;;;;;;;;;;;;;;;;;;;;;
2023/05/02 10:20:42;;;;;;;;;;;;;;;;;;;;;
2023/05/02 10:28:53;;;;;;;12.00;8.30;;;;;;;18.39;65.65;100423.85;134119;1298;22377;-73
2023/05/02 10:33:15;;;;;;;11.10;7.40;;;;;;;18.58;64.99;100425.04;134049;1298;22457;-75
2023/05/02 10:36:43;;;;;;;;;;;;;;;;;;;;;
2023/05/02 10:54:01;;;;;;;10.40;8.70;;;;;;;19.03;61.93;100430.46;134180;1305;22171;-74
2023/05/02 10:57:46;;;;;;;12.30;7.90;;;;;;;19.02;61.63;100429.80;134235;1297;22386;-75
2023/05/02 11:06:36;;;;;;;10.70;8.70;;;;;;;18.93;60.60;100435.64;133287;1305;23333;-77
2023/05/02 11:09:52;;;;;;;9.30;7.90;;;;;;;18.95;60.61;100434.39;133722;1301;22391;-78
2023/05/02 11:13:21;;;;;;;13.30;8.80;;;;;;;18.87;59.97;100433.98;134094;1299;22768;-72
2023/05/02 11:17:27;;;;;;;10.10;7.50;;;;;;;18.75;59.28;100437.52;134182;1298;22399;-73
2023/05/02 11:21:18;;;;;;;;;;;;;;;;;;;;;
2023/05/02 11:29:39;;;;;;;;;;;;;;;;;;;;;
2023/05/02 11:33:18;;;;;;;;;;;;;;;;;;;;;
2023/05/02 11:37:03;;;;;;;11.00;8.60;;;;;;;18.36;59.75;100453.94;134258;1297;22466;-77
2023/05/02 11:41:30;;;;;;;10.80;8.40;;;;;;;18.27;59.74;100455.75;134180;1298;23630;-73
2023/05/02 11:45:25;;;;;;;;;;;;;;;;;;;;;
2023/05/02 11:48:47;;;;;;;16.30;8.50;;;;;;;18.10;60.30;100464.61;134247;1298;22372;-74
2023/05/02 11:52:06;;;;;;;12.50;8.50;;;;;;;18.17;60.45;100465.55;133795;1301;23024;-73
2023/05/02 12:00:45;;;;;;;;;;;;;;;;;;;;;
2023/05/02 12:05:23;;;;;;;12.60;8.40;;;;;;;18.32;60.18;100469.13;134004;1298;22372;-75
2023/05/02 12:08:59;;;;;;;;;;;;;;;;;;;;;
2023/05/02 12:35:08;;;;;;;8.60;5.60;;;;;;;19.13;52.59;100460.45;134199;1298;22438;-77
2023/05/02 12:42:47;;;;;;;9.70;5.60;;;;;;;19.39;50.77;100470.66;134172;1298;22368;-79
2023/05/02 12:46:48;;;;;;;;;;;;;;;;;;;;;
2023/05/02 12:55:30;;;;;;;;;;;;;;;;;;;;;
2023/05/02 12:59:36;;;;;;;11.00;6.50;;;;;;;19.48;49.13;100481.91;133903;1298;22382;-79
2023/05/02 13:03:29;;;;;;;;;;;;;;;;;;;;;
2023/05/02 13:12:10;;;;;;;;;;;;;;;;;;;;;
2023/05/02 13:28:52;;;;;;;;;;;;;;;;;;;;;
2023/05/02 13:36:50;;;;;;;;;;;;;;;;;;;;;
2023/05/02 13:45:03;;;;;;;;;;;;;;;;;;;;;
2023/05/02 13:49:15;;;;;;;;;;;;;;;;;;;;;
2023/05/02 13:56:38;;;;;;;3.90;3.00;;;;;;;14.55;57.49;100554.09;134114;1305;22367;-84
2023/05/02 14:00:21;;;;;;;4.70;3.40;;;;;;;14.49;57.73;100548.09;134224;1297;22393;-80
2023/05/02 14:04:15;;;;;;;;;;;;;;;;;;;;;
2023/05/02 14:07:59;;;;;;;7.80;4.70;;;;;;;14.68;57.23;100527.63;134154;1295;22472;-75
2023/05/02 14:11:30;;;;;;;12.90;7.40;;;;;;;14.76;57.09;100523.26;134104;1301;22175;-75
2023/05/02 14:15:30;;;;;;;12.30;5.60;;;;;;;14.83;57.24;100516.09;134188;1298;22400;-77
2023/05/02 14:19:31;;;;;;;;;;;;;;;;;;;;;
2023/05/02 14:27:17;;;;;;;;;;;;;;;;;;;;;
2023/05/02 14:31:02;;;;;;;8.70;5.20;;;;;;;15.58;56.39;100517.07;134231;1297;25892;-80
2023/05/02 14:34:52;;;;;;;8.20;5.00;;;;;;;15.78;55.91;100516.84;134027;1297;22187;-78
2023/05/02 14:38:54;;;;;;;;;;;;;;;;;;;;;
2023/05/02 14:43:12;;;;;;;;;;;;;;;;;;;;;
2023/05/02 14:47:17;;;;;;;4.70;4.00;;;;;;;16.66;55.06;100523.64;134128;1293;23343;-76
2023/05/02 14:50:31;;;;;;;5.60;4.30;;;;;;;16.89;54.45;100526.94;134010;1297;22347;-78
2023/05/02 14:54:54;;;;;;;4.00;3.20;;;;;;;17.09;54.28;100527.29;134088;1301;22335;-76
2023/05/02 14:58:45;;;;;;;;;;;;;;;;;;;;;
2023/05/02 15:02:35;;;;;;;;;;;;;;;;;;;;;
2023/05/02 15:09:16;;;;;;;7.90;3.60;;;;;;;17.75;53.02;100535.77;134198;1297;22411;-77
2023/05/02 15:30:39;;;;;;;2.60;2.20;;;;;;;18.06;50.41;100550.48;134162;1297;22178;-83
2023/05/02 15:43:33;;;;;;;;;;;;;;;;;;;;;
2023/05/02 15:47:35;;;;;;;;;;;;;;;;;;;;;
2023/05/02 15:55:55;;;;;;;;;;;;;;;;;;;;;
2023/05/02 16:00:17;;;;;;;;;;;;;;;;;;;;;
2023/05/02 16:04:38;;;;;;;;;;;;;;;;;;;;;
2023/05/02 16:12:17;;;;;;;;;;;;;;;;;;;;;
2023/05/02 16:15:54;;;;;;;;;;;;;;;;;;;;;
2023/05/02 16:36:50;;;;;;;;;;;;;;;;;;;;;
2023/05/02 16:40:13;;;;;;;9.90;5.70;;;;;;;16.78;53.21;100598.14;134217;1297;22379;-80
2023/05/02 16:44:24;;;;;;;;;;;;;;;;;;;;;
2023/05/02 16:48:21;;;;;;;;;;;;;;;;;;;;;
2023/05/02 16:52:21;;;;;;;9.40;7.20;;;;;;;15.85;55.44;100611.70;134156;1297;22430;-77
2023/05/02 17:00:16;;;;;;;;;;;;;;;;;;;;;
2023/05/02 17:07:50;;;;;;;11.60;8.20;;;;;;;15.08;58.32;100619.40;133857;1297;23229;-87
2023/05/02 17:11:35;;;;;;;15.00;9.60;;;;;;;14.95;59.13;100625.05;134263;1297;22370;-80
2023/05/02 17:15:11;;;;;;;;;;;;;;;;;;;;;
2023/05/02 17:18:41;;;;;;;16.20;8.60;;;;;;;14.74;59.91;100638.45;134213;1297;22403;-79
2023/05/02 17:27:06;;;;;;;;;;;;;;;;;;;;;
2023/05/02 17:30:57;;;;;;;;;;;;;;;;;;;;;
2023/05/02 17:34:25;;;;;;;14.80;9.90;;;;;;;14.50;61.87;100654.25;133886;1297;22351;-80
2023/05/02 17:42:35;;;;;;;13.10;9.30;;;;;;;14.42;62.20;100665.16;133995;1297;23329;-81
2023/05/02 17:59:45;;;;;;;17.00;12.30;;;;;;;14.12;63.56;100687.95;134074;1297;23100;-78
2023/05/02 18:03:27;;;;;;;24.20;14.70;;;;;;;14.08;63.98;100694.08;134118;1297;22416;-79
2023/05/02 18:06:53;;;;;;;16.60;11.50;;;;;;;14.07;64.48;100695.67;134108;1297;22431;-79
2023/05/02 18:10:39;;;;;;;18.70;12.80;;;;;;;14.06;65.09;100698.21;133804;1298;22376;-79
2023/05/02 18:14:02;;;;;;;;;;;;;;;;;;;;;
2023/05/02 18:17:58;;;;;;;;;;;;;;;;;;;;;
2023/05/02 18:26:24;;;;;;;27.70;17.10;;;;;;;13.99;65.53;100713.50;134082;1297;22479;-78
2023/05/02 18:29:53;;;;;;;29.10;18.20;;;;;;;13.95;65.86;100715.25;134227;1298;22361;-78
2023/05/02 18:50:30;;;;;;;11.80;9.50;;;;;;;13.66;66.41;100747.56;134175;1298;22454;-78
2023/05/02 18:54:09;;;;;;;;;;;;;;;;;;;;;
2023/05/02 18:57:51;;;;;;;13.70;11.80;;;;;;;13.58;66.35;100757.36;134229;1297;22848;-78
2023/05/02 19:06:46;;;;;;;;;;;;;;;;;;;;;
2023/05/02 19:14:02;;;;;;;16.70;12.00;;;;;;;13.46;66.61;100777.72;134006;1301;22395;-78
2023/05/02 19:18:25;;;;;;;21.80;14.00;;;;;;;13.42;66.51;100774.20;134210;1297;22190;-78
2023/05/02 19:22:26;;;;;;;21.70;16.80;;;;;;;13.40;66.59;100781.70;134140;1298;22470;-77
2023/05/02 19:26:18;;;;;;;22.60;16.60;;;;;;;13.37;66.65;100779.77;134285;1301;22449;-77
2023/05/02 19:33:59;;;;;;;22.70;16.70;;;;;;;13.34;66.80;100793.48;134085;1297;22444;-78
2023/05/02 19:42:11;;;;;;;25.00;16.80;;;;;;;13.25;66.95;100804.17;134253;1297;22396;-79
2023/05/02 19:45:34;;;;;;;13.40;10.10;;;;;;;13.19;66.99;100813.98;134233;1297;22814;-78
2023/05/02 19:48:41;;;;;;;13.80;9.80;;;;;;;13.14;67.00;100819.72;134325;1282;22365;-78
2023/05/02 19:52:24;;;;;;;11.70;9.50;;;;;;;13.08;67.00;100818.58;132279;1298;2723333;-78
2023/05/02 19:56:09;;;;;;;13.60;9.20;;;;;;;13.03;67.00;100828.45;134275;1305;22470;-79
2023/05/02 19:59:53;;;;;;;13.10;10.00;;;;;;;12.97;66.73;100832.92;134265;1298;22378;-78
2023/05/02 20:03:32;;;;;;;;;;;;;;;;;;;;;
2023/05/02 20:07:24;;;;;;;;;;;;;;;;;;;;;
2023/05/02 20:11:19;;;;;;;12.50;9.40;;;;;;;12.82;67.00;100842.52;134054;1298;22515;-77
2023/05/02 20:14:39;;;;;;;11.30;8.80;;;;;;;12.77;66.99;100843.23;134224;1301;23165;-77
2023/05/02 20:18:03;;;;;;;12.20;9.90;;;;;;;12.74;67.12;100844.86;134264;1298;22419;-77
2023/05/02 20:21:25;;;;;;;11.60;10.20;;;;;;;12.69;67.00;100848.77;134249;1298;22363;-77
2023/05/02 20:25:11;;;;;;;12.50;10.00;;;;;;;12.63;67.21;100851.30;134230;1305;22547;-77
2023/05/02 20:37:25;;;;;;;;;;;;;;;;;;;;;
2023/05/02 20:42:12;;;;;;;15.30;9.80;;;;;;;12.42;67.58;100863.98;133943;1297;22421;-77
2023/05/02 20:45:38;;;;;;;13.80;9.60;;;;;;;12.37;67.63;100868.09;134081;1298;23254;-77
2023/05/02 20:57:19;;;;;;;;;;;;;;;;;;;;;
2023/05/02 21:01:48;;;;;;;9.50;7.10;;;;;;;12.14;67.82;100883.41;134043;1297;22283;-77
2023/05/02 21:04:58;;;;;;;11.70;7.20;;;;;;;12.09;67.96;100888.66;134067;1298;22240;-77
2023/05/02 21:09:10;;;;;;;;;;;;;;;;;;;;;
2023/05/02 21:12:39;;;;;;;8.30;5.80;;;;;;;12.03;67.93;100894.39;134231;1297;23626;-77
2023/05/02 21:15:46;;;;;;;7.10;5.60;;;;;;;12.02;67.88;100899.70;134247;1297;23869;-77
2023/05/02 21:19:24;;;;;;;;;;;;;;;;;;;;;
2023/05/02 21:22:40;;;;;;;8.70;5.20;;;;;;;11.99;67.79;100897.85;134288;1297;22299;-77
2023/05/02 21:25:54;;;;;;;8.60;5.30;;;;;;;11.97;67.95;100905.83;134256;1298;22270;-77
2023/05/02 21:28:55;;;;;;;7.90;5.60;;;;;;;11.96;67.89;100912.73;134249;1298;22382;-77
2023/05/02 21:32:11;;;;;;;7.00;4.60;;;;;;;11.94;67.87;100913.14;134268;1297;22728;-77
2023/05/02 21:35:34;;;;;;;;;;;;;;;;;;;;;
2023/05/02 21:39:09;;;;;;;;;;;;;;;;;;;;;
2023/05/02 21:42:30;;;;;;;6.20;4.60;;;;;;;11.84;68.06;100923.97;134006;1297;22497;-77
2023/05/02 21:46:25;;;;;;;;;;;;;;;;;;;;;
2023/05/02 21:50:05;;;;;;;6.80;4.70;;;;;;;11.78;67.98;100929.23;134149;1297;22378;-77
2023/05/02 21:54:01;;;;;;;7.10;5.00;;;;;;;11.75;68.05;100931.27;134195;1298;23098;-76
2023/05/02 21:57:08;;;;;;;8.70;4.80;;;;;;;11.72;68.09;100933.27;134146;1301;23160;-76
2023/05/02 22:00:26;;;;;;;8.00;5.10;;;;;;;11.66;68.05;100936.28;134172;1297;22164;-76
2023/05/02 22:03:45;;;;;;;10.20;5.30;;;;;;;11.64;68.27;100939.15;134212;1298;22544;-76
2023/05/02 22:07:22;;;;;;;13.40;5.60;;;;;;;11.61;68.31;100941.36;134194;1303;22459;-76
2023/05/02 22:11:36;;;;;;;;;;;;;;;;;;;;;
2023/05/02 22:15:41;;;;;;;12.20;5.80;;;;;;;11.57;68.36;100947.84;134007;1298;22565;-76
2023/05/02 22:23:11;;;;;;;12.50;6.20;;;;;;;11.51;68.46;100961.52;134031;1297;23044;-76
2023/05/02 22:26:27;;;;;;;11.50;6.80;;;;;;;11.49;68.65;100963.11;134095;1301;23069;-76
2023/05/02 22:30:12;;;;;;;8.70;6.00;;;;;;;11.47;68.63;100963.02;134220;1303;22174;-76
2023/05/02 22:33:18;;;;;;;10.90;5.40;;;;;;;11.44;68.59;100965.53;134100;1297;22339;-76
2023/05/02 22:37:33;;;;;;;;;;;;;;;;;;;;;
2023/05/02 22:41:07;;;;;;;10.40;6.10;;;;;;;11.41;68.82;100972.02;133969;1303;22356;-76
2023/05/02 22:49:42;;;;;;;;;;;;;;;;;;;;;
2023/05/02 23:01:17;;;;;;;13.30;6.30;;;;;;;11.29;69.55;100986.77;133969;1298;22520;-76
2023/05/02 23:04:37;;;;;;;12.10;6.40;;;;;;;11.24;69.53;100991.10;134063;1301;22290;-75
2023/05/02 23:08:57;;;;;;;12.90;6.60;;;;;;;11.20;69.56;100994.11;134207;1298;22913;-76
2023/05/02 23:13:17;;;;;;;12.00;6.90;;;;;;;11.17;69.67;101000.27;134190;1298;22247;-76
2023/05/02 23:17:20;;;;;;;14.60;6.20;;;;;;;11.12;69.68;101002.48;133933;1304;22178;-76
2023/05/02 23:30:07;;;;;;;13.80;6.10;;;;;;;10.99;69.59;101001.61;134001;1305;22477;-76
2023/05/02 23:38:15;;;;;;;;;;;;;;;;;;;;;
2023/05/02 23:46:51;;;;;;;;;;;;;;;;;;;;;
